Aeroporto :







RITROVATECI SU...

 
LOGIN :

Iscrizione | Disclaimer

   EN    FR    IT 

 









Sommario :    VFR   VFR Marginale   IFR   IFR Intensivo   IFR Molto Intensivo
Visibilità : 
Base nubi : 
>= 8 km
>= 3000ft
5 / 8 km
1000 / 3000 ft
1500m / 5 km
500 / 1000 ft
800 / 1500m
200 / 500 ft
< 800m
< 200 ft
Simboli :   Temporali  Nebbia  Neve Forte  Precipitazioni Forti  Vento > 20 kt






- Altitudine del aeroporto : 335 ft
- Codice IATA : BTV


KBTV - Burlington International

ULTIMO METAR :
  • 062040Z 36003KT 3/4SM R15/6000VP6000FT -SN BR VV020 M02/M04 A2993 RMK AO2 VIS 3/4V1 1/4 P0001 T10221044

METARs OBSOLETI :
  • 061954Z 00000KT 1SM R15/5500VP6000FT -SN BR BKN026 OVC033 M02/M04 A2992 RMK AO2 SLP137 VIS 3/4V1 1/2 P0002 T10221039
  • 061939Z 00000KT 1 1/2SM R15/6000VP6000FT -SN BR BKN024 OVC034 M02/M04 A2992 RMK AO2 VIS 3/4V1 1/2 P0001 T10221044
  • 061932Z COR 00000KT 1 1/4SM R15/5500VP6000FT -SN BR BKN022 OVC034 M02/M04 A2992 RMK AO2 VIS 3/4V1 1/2 P0001 T10221039
  • 061914Z 00000KT 1SM R15/5000V6000FT -SN BR FEW007 OVC022 M02/M04 A2992 RMK AO2 VIS 3/4V1 1/4 P0001 T10221044
  • 061900Z 19003KT 1SM R15/5000VP6000FT -SN BR FEW013 OVC023 M02/M04 A2992 RMK AO2 VIS 3/4V1 1/4 P0000 T10221044
  • 061854Z 18003KT 1SM R15/5000VP6000FT -SN BR FEW012 OVC023 M02/M04 A2993 RMK AO2 SLP138 P0001 T10221044
  • 061844Z 20003KT 2SM R15/5500VP6000FT -SN SCT012 OVC027 M02/M05 A2993 RMK AO2 P0001 T10221050
  • 061808Z 20004KT 2 1/2SM -SN BKN035 OVC046 M02/M06 A2993 RMK AO2 TWR VIS 3 P0001 T10221056
  • 061754Z 19005KT 3SM -SN BKN035 OVC046 M02/M06 A2993 RMK AO2 SNB05 SLP140 4/003 P0000 60000 T10221061 11017 21039 58024

TAF KBTV
Valido dal 06 a 19 ore il 07 a 18 ore UTC


061900Z 0619/0718 20005KT 3SM -SN BR OVC035
TEMPO 0619/0620 1SM -SN BR OVC025
FM062000 VRB04KT 1 1/2SM -SN BR OVC015
FM062200 34008KT 4SM -SN OVC025
FM070100 34007KT P6SM BKN025
FM070500 33005KT P6SM SCT025 BKN040



MetMap, La meteo Aeronautica in un colpo d'occhio ! - Copyright ORBIFLY Dicembre 2007 - Disclaimer

ORBIFLY MET'MAP TEAM :

Programmazione e sviluppo : Alexandra Zaïnal
Concezione : Baudouin d'Aumeries
Aiuto per la programmazione : Marc-Olivier Méhu
Supporto tecnico e logistico : Manuel Goepfert
Aiuto per la traduzione : Arnaldo La Scala

Contatto : metmap@orbifly.com




FONTI E CREDITI :

   NOAA